Time;durP1;ratioP1;P1;durP2;ratioP2;P2;SDS_P1;SDS_P2;PMS_P1;PMS_P2;Temp;Humidity;BMP_temperature;BMP_pressure;BME280_temperature;BME280_humidity;BME280_pressure;Samples;Min_cycle;Max_cycle;Signal;HPM_P1;HPM_P2
2022/05/30 00:01:24;;;;;;;;;;;8.60;99.90;;;;;;4725775;30;19931;-85
2022/05/30 00:03:49;;;;;;;;;;;8.30;99.90;;;;;;4731858;30;20309;-85
2022/05/30 00:06:16;;;;;;;;;;;8.30;99.90;;;;;;4725165;30;19926;-84
2022/05/30 00:08:42;;;;;;;;;;;8.30;99.90;;;;;;4723463;30;19930;-85
2022/05/30 00:11:09;;;;;;;;;;;8.20;99.90;;;;;;4729688;30;20345;-84
2022/05/30 00:13:35;;;;;;;;;;;8.90;99.90;;;;;;4723330;30;19931;-85
2022/05/30 00:16:04;;;;;;;;;;;8.70;99.90;;;;;;4723385;30;19936;-85
2022/05/30 00:18:30;;;;;;;;;;;8.20;99.90;;;;;;4729190;30;19927;-85
2022/05/30 00:20:55;;;;;;;;;;;8.70;99.90;;;;;;4713243;30;19937;-85
2022/05/30 00:23:21;;;;;;;;;;;8.20;99.90;;;;;;4724803;30;19930;-85
2022/05/30 00:25:46;;;;;;;;;;;8.40;99.90;;;;;;4726698;30;20395;-85
2022/05/30 00:28:12;;;;;;;;;;;9.00;99.90;;;;;;4788767;30;20018;-85
2022/05/30 00:30:38;;;;;;;;;;;8.20;99.90;;;;;;4771999;30;19926;-85
2022/05/30 00:33:03;;;;;;;;;;;8.20;99.90;;;;;;4787958;29;19925;-85
2022/05/30 00:35:29;;;;;;;;;;;8.20;99.90;;;;;;4772118;30;19925;-85
2022/05/30 00:37:56;;;;;;;;;;;8.70;99.90;;;;;;4788184;29;20306;-85
2022/05/30 00:40:22;;;;;;;;;;;7.50;99.90;;;;;;4787969;30;19925;-85
2022/05/30 00:42:47;;;;;;;;;;;8.20;99.90;;;;;;4787914;29;19932;-85
2022/05/30 00:45:15;;;;;;;;;;;8.20;99.90;;;;;;4788077;29;20011;-85
2022/05/30 00:47:41;;;;;;;;;;;8.30;99.90;;;;;;4788065;29;19936;-85
2022/05/30 00:50:07;;;;;;;;;;;9.00;99.90;;;;;;4787990;29;20295;-85
2022/05/30 00:52:37;;;;;;;;;;;8.30;99.90;;;;;;4787324;29;19925;-85
2022/05/30 00:55:11;;;;;;;;;;;8.30;99.90;;;;;;4788276;29;19933;-84
2022/05/30 00:57:37;;;;;;;;;;;8.30;99.90;;;;;;4787717;29;19931;-84
2022/05/30 01:00:08;;;;;;;;;;;8.30;99.90;;;;;;4788115;29;19969;-86
2022/05/30 01:02:36;;;;;;;;;;;8.30;99.90;;;;;;4786754;29;19922;-85
2022/05/30 01:07:47;;;;;;;;;;;8.30;99.90;;;;;;4787446;29;20364;-85
2022/05/30 01:10:14;;;;;;;;;;;8.30;99.90;;;;;;4787954;30;19978;-85
2022/05/30 01:12:42;;;;;;;;;;;8.70;99.90;;;;;;4771184;30;20017;-85
2022/05/30 01:15:09;;;;;;;;;;;9.30;99.90;;;;;;4786987;29;20328;-85
2022/05/30 01:17:38;;;;;;;;;;;8.30;99.90;;;;;;4768482;30;20294;-85
2022/05/30 01:20:06;;;;;;;;;;;8.30;99.90;;;;;;4786551;29;19974;-85
2022/05/30 01:22:31;;;;;;;;;;;8.20;99.90;;;;;;4771247;30;20379;-85
2022/05/30 01:25:00;;;;;;;;;;;8.50;99.90;;;;;;4787060;29;19933;-85
2022/05/30 01:27:35;;;;;;;;;;;8.10;99.90;;;;;;4787479;29;19964;-86
2022/05/30 01:30:08;;;;;;;;;;;8.10;99.90;;;;;;4771138;30;19926;-84
2022/05/30 01:32:33;;;;;;;;;;;8.00;99.90;;;;;;4787071;29;19926;-84
2022/05/30 01:34:59;;;;;;;;;;;8.00;99.90;;;;;;4787097;30;19940;-85
2022/05/30 01:37:27;;;;;;;;;;;8.30;99.90;;;;;;4787057;29;19983;-85
2022/05/30 01:39:53;;;;;;;;;;;7.50;99.90;;;;;;4787461;29;19929;-86
2022/05/30 01:42:18;;;;;;;;;;;8.80;99.90;;;;;;4771749;30;20037;-85
2022/05/30 01:44:44;;;;;;;;;;;8.20;99.90;;;;;;4787954;29;19974;-85
2022/05/30 01:47:10;;;;;;;;;;;8.20;99.90;;;;;;4786687;29;20363;-85
2022/05/30 01:49:36;;;;;;;;;;;8.00;99.90;;;;;;4787183;29;19933;-85
2022/05/30 01:52:02;;;;;;;;;;;7.50;99.90;;;;;;4785204;30;19955;-85
2022/05/30 01:54:27;;;;;;;;;;;7.80;99.90;;;;;;4787249;30;19948;-85
2022/05/30 01:56:53;;;;;;;;;;;7.70;99.90;;;;;;4786545;29;19929;-85
2022/05/30 01:59:19;;;;;;;;;;;7.40;99.90;;;;;;4786168;29;19932;-85
2022/05/30 02:01:45;;;;;;;;;;;8.10;99.90;;;;;;4787374;29;20390;-85
2022/05/30 02:04:11;;;;;;;;;;;7.60;99.90;;;;;;4786907;29;19929;-85
2022/05/30 02:06:37;;;;;;;;;;;7.60;99.90;;;;;;4786709;30;20375;-85
2022/05/30 02:09:03;;;;;;;;;;;7.60;99.90;;;;;;4786763;30;19964;-85
2022/05/30 02:11:29;;;;;;;;;;;7.70;99.90;;;;;;4786867;29;20004;-85
2022/05/30 02:13:54;;;;;;;;;;;7.90;99.90;;;;;;4787169;29;20016;-85
2022/05/30 02:19:04;;;;;;;;;;;6.70;99.90;;;;;;4786806;29;19932;-84
2022/05/30 02:21:31;;;;;;;;;;;7.40;99.90;;;;;;4787134;29;19925;-85
2022/05/30 02:23:57;;;;;;;;;;;7.50;99.90;;;;;;4771217;30;20361;-85
2022/05/30 02:26:22;;;;;;;;;;;7.60;99.90;;;;;;4787518;29;19976;-85
2022/05/30 02:28:48;;;;;;;;;;;8.10;99.90;;;;;;4789795;30;19933;-85
2022/05/30 02:31:14;;;;;;;;;;;8.00;99.90;;;;;;4790196;29;19925;-84
2022/05/30 02:36:39;;;;;;;;;;;7.40;99.90;;;;;;4773818;30;20004;-85
2022/05/30 02:39:05;;;;;;;;;;;7.40;99.90;;;;;;4789921;29;19971;-85
2022/05/30 02:41:31;;;;;;;;;;;7.80;99.90;;;;;;4774210;30;19956;-85
2022/05/30 02:43:56;;;;;;;;;;;7.40;99.90;;;;;;4790205;29;19925;-84
2022/05/30 02:46:22;;;;;;;;;;;7.40;99.90;;;;;;4789631;29;20022;-85
2022/05/30 02:48:47;;;;;;;;;;;8.00;99.90;;;;;;4789874;29;19974;-85
2022/05/30 02:51:13;;;;;;;;;;;7.40;99.90;;;;;;4773499;30;19932;-85
2022/05/30 02:53:39;;;;;;;;;;;7.40;99.90;;;;;;4773902;30;19932;-85
2022/05/30 02:56:04;;;;;;;;;;;7.70;99.90;;;;;;4774013;30;19933;-85
2022/05/30 02:58:30;;;;;;;;;;;7.30;99.90;;;;;;4788990;30;20019;-85
2022/05/30 03:00:56;;;;;;;;;;;8.20;99.90;;;;;;4773901;30;19979;-85
2022/05/30 03:03:21;;;;;;;;;;;8.10;99.90;;;;;;4789736;29;19926;-85
2022/05/30 03:05:47;;;;;;;;;;;7.40;99.90;;;;;;4790268;30;19926;-85
2022/05/30 03:08:12;;;;;;;;;;;7.40;99.90;;;;;;4789434;29;20045;-85
2022/05/30 03:10:38;;;;;;;;;;;6.90;99.90;;;;;;4789418;30;19933;-85
2022/05/30 03:13:05;;;;;;;;;;;7.80;99.90;;;;;;4773383;30;20295;-85
2022/05/30 03:15:31;;;;;;;;;;;7.40;99.90;;;;;;4773273;29;19929;-85
2022/05/30 03:17:56;;;;;;;;;;;7.70;99.90;;;;;;4773942;30;19932;-85
2022/05/30 03:20:22;;;;;;;;;;;7.40;99.90;;;;;;4789143;29;20027;-85
2022/05/30 03:22:47;;;;;;;;;;;7.90;99.90;;;;;;4789615;29;20283;-85
2022/05/30 03:25:13;;;;;;;;;;;7.50;99.90;;;;;;4773301;30;19932;-85
2022/05/30 03:27:39;;;;;;;;;;;7.50;99.90;;;;;;4772222;30;19929;-85
2022/05/30 03:30:05;;;;;;;;;;;8.50;99.90;;;;;;4788692;29;19973;-85
2022/05/30 03:32:31;;;;;;;;;;;7.50;99.90;;;;;;4773040;29;19925;-85
2022/05/30 03:34:56;;;;;;;;;;;8.40;99.90;;;;;;4789154;29;20307;-85
2022/05/30 03:37:22;;;;;;;;;;;8.50;99.90;;;;;;4772942;30;19972;-85
2022/05/30 03:39:47;;;;;;;;;;;7.60;99.90;;;;;;4788625;30;19925;-85
2022/05/30 03:42:14;;;;;;;;;;;7.60;99.90;;;;;;4773258;30;20333;-85
2022/05/30 03:44:40;;;;;;;;;;;7.70;99.90;;;;;;4788106;29;19925;-85
2022/05/30 03:47:06;;;;;;;;;;;7.70;99.90;;;;;;4789170;29;19934;-85
2022/05/30 03:49:32;;;;;;;;;;;7.70;99.90;;;;;;4788838;29;19926;-85
2022/05/30 03:52:00;;;;;;;;;;;7.70;99.90;;;;;;4788055;29;20008;-85
2022/05/30 03:57:31;;;;;;;;;;;7.80;99.90;;;;;;4768827;30;19930;-83
2022/05/30 03:59:57;;;;;;;;;;;7.70;99.90;;;;;;4748180;30;19926;-85
2022/05/30 04:02:22;;;;;;;;;;;8.50;99.90;;;;;;4764487;30;19926;-86
2022/05/30 04:04:48;;;;;;;;;;;7.80;99.90;;;;;;4746530;30;19926;-85
2022/05/30 04:07:13;;;;;;;;;;;8.00;99.90;;;;;;4761463;30;19932;-85
2022/05/30 04:09:39;;;;;;;;;;;7.80;99.90;;;;;;4761026;30;19933;-85
2022/05/30 04:12:05;;;;;;;;;;;8.50;99.90;;;;;;4768422;30;20379;-85
2022/05/30 04:14:31;;;;;;;;;;;7.90;99.90;;;;;;4761125;30;20299;-84
2022/05/30 04:16:57;;;;;;;;;;;7.90;99.90;;;;;;4733989;30;19934;-86
2022/05/30 04:19:22;;;;;;;;;;;6.90;99.90;;;;;;4743246;30;19926;-85
2022/05/30 04:21:48;;;;;;;;;;;7.90;99.90;;;;;;4767418;30;20012;-85
2022/05/30 04:24:14;;;;;;;;;;;8.40;99.90;;;;;;4760033;30;19926;-85
2022/05/30 04:26:39;;;;;;;;;;;8.10;99.90;;;;;;4745149;30;20315;-84
2022/05/30 04:29:05;;;;;;;;;;;8.60;99.90;;;;;;4747540;30;20306;-85
2022/05/30 04:31:31;;;;;;;;;;;9.10;99.90;;;;;;4747834;30;20026;-85
2022/05/30 04:33:56;;;;;;;;;;;8.50;99.90;;;;;;4761914;30;20392;-85
2022/05/30 04:36:22;;;;;;;;;;;8.30;99.90;;;;;;4758814;30;19930;-85
2022/05/30 04:38:47;;;;;;;;;;;8.70;99.90;;;;;;4747145;30;19932;-85
2022/05/30 04:41:13;;;;;;;;;;;8.70;99.90;;;;;;4760839;30;19926;-84
2022/05/30 04:43:39;;;;;;;;;;;9.00;99.90;;;;;;4745291;30;19937;-87
2022/05/30 04:46:07;;;;;;;;;;;8.60;99.90;;;;;;4762973;30;20372;-86
2022/05/30 04:48:33;;;;;;;;;;;8.70;99.90;;;;;;4742523;30;19933;-84
2022/05/30 04:50:58;;;;;;;;;;;9.20;99.90;;;;;;4763313;30;19926;-86
2022/05/30 04:53:25;;;;;;;;;;;9.60;99.90;;;;;;4758634;30;20353;-85
2022/05/30 04:55:51;;;;;;;;;;;9.70;99.90;;;;;;4747022;30;19930;-84
2022/05/30 04:58:17;;;;;;;;;;;9.10;99.90;;;;;;4747433;30;19925;-85
2022/05/30 05:00:42;;;;;;;;;;;9.20;99.90;;;;;;4753498;30;19926;-85
2022/05/30 05:03:08;;;;;;;;;;;9.40;99.90;;;;;;4761855;30;19926;-86
2022/05/30 05:05:33;;;;;;;;;;;9.80;99.90;;;;;;4761047;30;19926;-85
2022/05/30 05:08:25;;;;;;;;;;;9.60;99.90;;;;;;4762654;30;19929;-86
2022/05/30 05:11:04;;;;;;;;;;;9.80;99.90;;;;;;4760702;30;19926;-87
2022/05/30 05:13:30;;;;;;;;;;;9.80;99.90;;;;;;4757273;30;19994;-85
2022/05/30 05:15:56;;;;;;;;;;;10.00;99.90;;;;;;4764009;30;19925;-84
2022/05/30 05:18:22;;;;;;;;;;;9.70;99.90;;;;;;4760271;30;20026;-85
2022/05/30 05:20:47;;;;;;;;;;;10.10;99.90;;;;;;4744367;30;19935;-85
2022/05/30 05:23:13;;;;;;;;;;;9.90;99.90;;;;;;4751105;30;20071;-86
2022/05/30 05:25:39;;;;;;;;;;;10.30;99.90;;;;;;4763131;30;19925;-86
2022/05/30 05:28:05;;;;;;;;;;;10.70;99.90;;;;;;4746843;30;19929;-85
2022/05/30 05:30:31;;;;;;;;;;;10.40;99.90;;;;;;4760428;30;19936;-85
2022/05/30 05:32:57;;;;;;;;;;;10.60;99.90;;;;;;4760555;30;20331;-85
2022/05/30 05:35:22;;;;;;;;;;;10.60;99.90;;;;;;4768864;30;20094;-85
2022/05/30 05:37:48;;;;;;;;;;;10.60;99.90;;;;;;4763261;30;20299;-86
2022/05/30 05:40:13;;;;;;;;;;;10.60;99.90;;;;;;4761283;30;19926;-85
2022/05/30 05:42:40;;;;;;;;;;;10.70;99.90;;;;;;4746957;30;19926;-86
2022/05/30 05:45:06;;;;;;;;;;;10.80;99.90;;;;;;4762420;30;19977;-86
2022/05/30 05:47:33;;;;;;;;;;;10.70;99.90;;;;;;4760355;30;19926;-90
2022/05/30 05:49:59;;;;;;;;;;;10.80;99.90;;;;;;4766643;30;19983;-85
2022/05/30 05:52:28;;;;;;;;;;;10.80;99.90;;;;;;4762584;30;19933;-85
2022/05/30 05:54:57;;;;;;;;;;;10.70;99.90;;;;;;4747316;30;19972;-85
2022/05/30 05:57:25;;;;;;;;;;;10.70;99.90;;;;;;4762080;30;19926;-83
2022/05/30 05:59:50;;;;;;;;;;;10.70;99.90;;;;;;4762938;30;19930;-86
2022/05/30 06:02:16;;;;;;;;;;;10.70;99.90;;;;;;4741747;30;20375;-88
2022/05/30 06:04:41;;;;;;;;;;;10.80;99.90;;;;;;4748068;30;19926;-85
2022/05/30 06:07:07;;;;;;;;;;;11.60;99.90;;;;;;4764328;30;19933;-83
2022/05/30 06:09:33;;;;;;;;;;;10.90;99.90;;;;;;4766862;30;19958;-84
2022/05/30 06:11:59;;;;;;;;;;;11.10;99.90;;;;;;4766107;30;19926;-86
2022/05/30 06:14:24;;;;;;;;;;;11.00;99.90;;;;;;4763880;30;20016;-85
2022/05/30 06:16:50;;;;;;;;;;;11.10;99.90;;;;;;4744929;30;20403;-85
2022/05/30 06:19:16;;;;;;;;;;;11.50;99.90;;;;;;4747267;30;19928;-86
2022/05/30 06:21:41;;;;;;;;;;;11.20;99.90;;;;;;4752766;30;19926;-85
2022/05/30 06:24:08;;;;;;;;;;;11.20;99.90;;;;;;4747159;30;19926;-85
2022/05/30 06:26:34;;;;;;;;;;;11.30;99.90;;;;;;4762516;30;19929;-84
2022/05/30 06:29:00;;;;;;;;;;;11.50;99.90;;;;;;4762463;30;20025;-86
2022/05/30 06:31:27;;;;;;;;;;;12.10;99.90;;;;;;4769461;30;19948;-84
2022/05/30 06:33:53;;;;;;;;;;;11.40;99.90;;;;;;4747090;30;19926;-86
2022/05/30 06:36:20;;;;;;;;;;;11.90;99.90;;;;;;4762577;30;19926;-85
2022/05/30 06:38:47;;;;;;;;;;;11.40;99.90;;;;;;4750402;30;19933;-86
2022/05/30 06:41:20;;;;;;;;;;;11.40;99.90;;;;;;4765804;30;19929;-85
2022/05/30 06:43:46;;;;;;;;;;;11.40;99.90;;;;;;4747501;30;19926;-84
2022/05/30 06:46:13;;;;;;;;;;;11.40;99.90;;;;;;4765597;30;20464;-84
2022/05/30 06:48:38;;;;;;;;;;;11.50;99.90;;;;;;4763497;30;20256;-86
2022/05/30 06:51:05;;;;;;;;;;;11.40;99.90;;;;;;4767429;30;19930;-85
2022/05/30 06:53:31;;;;;;;;;;;11.40;99.90;;;;;;4764042;30;19930;-85
2022/05/30 06:55:57;;;;;;;;;;;11.50;99.90;;;;;;4749023;30;19926;-84
2022/05/30 06:58:23;;;;;;;;;;;11.70;99.90;;;;;;4764754;30;19926;-85
2022/05/30 07:00:48;;;;;;;;;;;11.50;99.90;;;;;;4764796;30;19926;-84
2022/05/30 07:03:14;;;;;;;;;;;11.60;99.90;;;;;;4765826;30;19933;-86
2022/05/30 07:05:42;;;;;;;;;;;11.60;99.90;;;;;;4748743;30;19926;-82
2022/05/30 07:08:08;;;;;;;;;;;11.70;99.90;;;;;;4765381;30;19937;-86
2022/05/30 07:10:35;;;;;;;;;;;11.70;99.90;;;;;;4747590;30;20383;-86
2022/05/30 07:13:01;;;;;;;;;;;11.70;99.90;;;;;;4757950;30;19937;-84
2022/05/30 07:15:27;;;;;;;;;;;12.20;99.90;;;;;;4747630;30;19989;-84
2022/05/30 07:17:55;;;;;;;;;;;11.90;99.90;;;;;;4758966;30;19970;-87
2022/05/30 07:20:20;;;;;;;;;;;11.90;99.90;;;;;;4765881;30;19928;-84
2022/05/30 07:22:46;;;;;;;;;;;12.60;99.90;;;;;;4770108;30;19926;-88
2022/05/30 07:25:13;;;;;;;;;;;11.90;99.90;;;;;;4760135;30;19941;-83
2022/05/30 07:27:38;;;;;;;;;;;11.90;99.90;;;;;;4768289;30;19956;-87
2022/05/30 07:30:05;;;;;;;;;;;12.60;99.90;;;;;;4751351;30;20340;-86
2022/05/30 07:32:32;;;;;;;;;;;12.20;99.90;;;;;;4773742;30;19926;-87
2022/05/30 07:34:58;;;;;;;;;;;12.40;99.90;;;;;;4765071;30;19921;-85
2022/05/30 07:37:24;;;;;;;;;;;12.60;99.90;;;;;;4751853;30;19949;-87
2022/05/30 07:39:49;;;;;;;;;;;13.40;99.90;;;;;;4765936;30;19922;-85
2022/05/30 07:42:15;;;;;;;;;;;13.30;99.90;;;;;;4746469;30;20013;-83
2022/05/30 07:44:41;;;;;;;;;;;13.70;99.90;;;;;;4769312;30;20305;-85
2022/05/30 07:47:07;;;;;;;;;;;13.50;99.90;;;;;;4759365;30;20407;-84
2022/05/30 07:49:33;;;;;;;;;;;13.60;99.90;;;;;;4749183;30;19926;-84
2022/05/30 07:51:59;;;;;;;;;;;13.80;99.90;;;;;;4748407;30;20033;-85
2022/05/30 07:54:24;;;;;;;;;;;14.10;99.90;;;;;;4756539;30;19930;-86
2022/05/30 07:56:50;;;;;;;;;;;14.40;99.90;;;;;;4764765;30;19933;-89
2022/05/30 07:59:15;;;;;;;;;;;14.70;99.90;;;;;;4761586;30;20357;-85
2022/05/30 08:01:41;;;;;;;;;;;14.60;99.90;;;;;;4761733;30;19984;-86
2022/05/30 08:04:12;;;;;;;;;;;14.40;99.90;;;;;;4746948;30;19938;-86
2022/05/30 08:06:38;;;;;;;;;;;14.50;99.90;;;;;;4760687;30;19925;-87
2022/05/30 08:09:04;;;;;;;;;;;14.40;99.90;;;;;;4741731;30;19933;-85
2022/05/30 08:11:30;;;;;;;;;;;14.40;99.90;;;;;;4766659;30;19961;-85
2022/05/30 08:13:56;;;;;;;;;;;14.40;99.90;;;;;;4761523;30;19976;-85
2022/05/30 08:16:23;;;;;;;;;;;14.10;99.90;;;;;;4744918;30;19933;-86
2022/05/30 08:18:49;;;;;;;;;;;14.10;99.90;;;;;;4744223;30;20495;-85
2022/05/30 08:21:15;;;;;;;;;;;14.00;99.90;;;;;;4741004;30;20012;-85
2022/05/30 08:23:41;;;;;;;;;;;14.00;99.90;;;;;;4753726;30;19938;-86
2022/05/30 08:33:00;;;;;;;;;;;13.70;99.90;;;;;;4756621;30;20041;-85
2022/05/30 08:35:25;;;;;;;;;;;13.60;99.90;;;;;;4763461;30;19930;-86
2022/05/30 08:37:54;;;;;;;;;;;13.80;99.90;;;;;;4765496;30;20050;-87
2022/05/30 08:43:13;;;;;;;;;;;14.30;99.90;;;;;;4758888;30;20379;-87
2022/05/30 08:45:39;;;;;;;;;;;14.70;99.90;;;;;;4747538;30;19933;-85
2022/05/30 08:48:11;;;;;;;;;;;14.90;99.90;;;;;;4743681;30;20287;-86
2022/05/30 08:50:50;;;;;;;;;;;15.30;99.90;;;;;;4754530;30;20341;-86
2022/05/30 08:53:15;;;;;;;;;;;15.30;99.90;;;;;;4754941;30;19930;-85
2022/05/30 08:55:47;;;;;;;;;;;15.60;99.90;;;;;;4765295;30;21339;-87
2022/05/30 08:58:25;;;;;;;;;;;15.60;99.90;;;;;;4765622;30;19940;-85
2022/05/30 09:00:53;;;;;;;;;;;15.50;99.90;;;;;;4759230;30;19930;-85
2022/05/30 09:03:31;;;;;;;;;;;15.30;99.90;;;;;;4761624;30;19925;-86
2022/05/30 09:05:59;;;;;;;;;;;15.20;99.90;;;;;;4760397;30;20277;-85
2022/05/30 09:08:38;;;;;;;;;;;15.00;99.90;;;;;;4745725;30;20983;-84
2022/05/30 09:11:07;;;;;;;;;;;14.80;99.90;;;;;;4759734;30;19927;-86
2022/05/30 09:13:34;;;;;;;;;;;14.60;99.90;;;;;;4746787;30;20368;-86
2022/05/30 09:16:06;;;;;;;;;;;14.30;99.90;;;;;;4747373;30;19949;-85
2022/05/30 09:18:35;;;;;;;;;;;14.10;99.90;;;;;;4746715;30;19932;-86
2022/05/30 09:21:01;;;;;;;;;;;13.90;99.90;;;;;;4767708;30;19929;-87
2022/05/30 09:23:26;;;;;;;;;;;13.80;99.90;;;;;;4761341;30;19932;-87
2022/05/30 09:26:01;;;;;;;;;;;13.70;99.90;;;;;;4744854;30;19930;-91
2022/05/30 09:28:30;;;;;;;;;;;14.10;99.90;;;;;;4761549;30;19932;-88
2022/05/30 09:30:56;;;;;;;;;;;13.50;99.90;;;;;;4759233;30;19933;-88
2022/05/30 09:33:21;;;;;;;;;;;13.50;99.90;;;;;;4762065;30;19934;-88
2022/05/30 09:35:47;;;;;;;;;;;13.40;99.90;;;;;;4745302;30;19929;-88
2022/05/30 09:38:22;;;;;;;;;;;13.40;99.90;;;;;;4751193;30;20244;-88
2022/05/30 09:44:47;;;;;;;;;;;13.60;99.90;;;;;;4767812;30;19920;-91
2022/05/30 09:47:18;;;;;;;;;;;13.40;99.90;;;;;;4764733;30;19926;-88
2022/05/30 09:49:45;;;;;;;;;;;13.50;99.90;;;;;;4751336;30;20412;-86
2022/05/30 09:52:23;;;;;;;;;;;13.50;99.90;;;;;;4760097;30;19941;-87
2022/05/30 09:54:49;;;;;;;;;;;13.50;99.90;;;;;;4748328;30;20020;-90
2022/05/30 09:57:17;;;;;;;;;;;13.90;99.90;;;;;;4743639;30;20012;-87
2022/05/30 09:59:45;;;;;;;;;;;13.90;99.90;;;;;;4759902;30;19930;-88
2022/05/30 10:02:27;;;;;;;;;;;13.80;99.90;;;;;;4752998;30;19979;-88
2022/05/30 10:05:01;;;;;;;;;;;13.90;99.90;;;;;;4737214;30;19979;-87
2022/05/30 10:07:26;;;;;;;;;;;14.00;99.90;;;;;;4753088;30;19922;-89
2022/05/30 10:09:58;;;;;;;;;;;14.10;99.90;;;;;;4755574;30;19937;-86
2022/05/30 10:16:00;;;;;;;;;;;14.20;99.90;;;;;;4771517;30;19921;-84
2022/05/30 10:18:48;;;;;;;;;;;14.20;99.90;;;;;;4755213;30;20355;-84
2022/05/30 10:21:27;;;;;;;;;;;14.30;99.90;;;;;;4765348;30;19977;-85
2022/05/30 10:30:04;;;;;;;;;;;14.80;99.90;;;;;;4754786;30;20283;-84
2022/05/30 10:32:32;;;;;;;;;;;15.10;99.90;;;;;;4770438;30;19925;-84
2022/05/30 10:34:59;;;;;;;;;;;15.20;99.90;;;;;;4770713;30;19932;-85
2022/05/30 10:37:33;;;;;;;;;;;15.80;99.90;;;;;;4770243;30;20283;-85
2022/05/30 10:39:59;;;;;;;;;;;15.80;99.90;;;;;;4754455;30;19925;-85
2022/05/30 10:42:43;;;;;;;;;;;15.80;99.90;;;;;;4770107;30;19933;-87
2022/05/30 10:45:27;;;;;;;;;;;15.80;99.90;;;;;;4770076;30;19976;-84
2022/05/30 10:47:54;;;;;;;;;;;15.90;99.90;;;;;;4754619;30;19926;-85
2022/05/30 10:50:19;;;;;;;;;;;16.20;99.90;;;;;;4757311;30;19926;-84
2022/05/30 10:52:45;;;;;;;;;;;16.60;99.90;;;;;;4772998;30;19933;-84
2022/05/30 10:55:14;;;;;;;;;;;16.70;99.90;;;;;;4757729;30;19992;-84
2022/05/30 10:57:45;;;;;;;;;;;16.70;99.90;;;;;;4757367;30;19929;-84
2022/05/30 11:00:12;;;;;;;;;;;16.80;99.90;;;;;;4773198;30;19932;-86
2022/05/30 11:02:45;;;;;;;;;;;16.60;99.90;;;;;;4755955;30;19980;-86
2022/05/30 11:05:29;;;;;;;;;;;16.50;99.90;;;;;;4763158;30;19926;-87
2022/05/30 11:08:14;;;;;;;;;;;16.60;99.90;;;;;;4756944;30;20383;-86
2022/05/30 11:10:46;;;;;;;;;;;16.00;99.90;;;;;;4772922;30;19925;-86
2022/05/30 11:13:14;;;;;;;;;;;15.60;99.90;;;;;;4773107;30;19991;-87
2022/05/30 11:15:50;;;;;;;;;;;15.30;99.90;;;;;;4772713;30;19987;-87
2022/05/30 11:18:23;;;;;;;;;;;15.10;99.90;;;;;;4772549;30;19926;-88
2022/05/30 11:21:20;;;;;;;;;;;14.90;99.90;;;;;;4756320;30;20398;-88
2022/05/30 11:23:47;;;;;;;;;;;14.80;99.90;;;;;;4703211;30;19926;-86
2022/05/30 11:26:16;;;;;;;;;;;14.90;99.90;;;;;;4714775;30;20344;-85
2022/05/30 11:28:59;;;;;;;;;;;14.80;99.90;;;;;;4686533;30;20367;-86
2022/05/30 11:31:50;;;;;;;;;;;14.70;99.90;;;;;;4700890;30;20026;-86
2022/05/30 11:34:36;;;;;;;;;;;14.60;99.90;;;;;;4684511;30;20386;-85
2022/05/30 11:37:34;;;;;;;;;;;14.60;99.90;;;;;;4683838;30;19924;-84
2022/05/30 11:40:20;;;;;;;;;;;14.60;99.90;;;;;;4683876;30;19938;-85
2022/05/30 11:43:10;;;;;;;;;;;14.60;99.90;;;;;;4683826;30;19935;-85
2022/05/30 11:45:36;;;;;;;;;;;14.60;99.90;;;;;;4683105;30;19931;-86
2022/05/30 11:48:04;;;;;;;;;;;14.80;99.90;;;;;;4683355;30;19928;-85
2022/05/30 11:50:49;;;;;;;;;;;15.20;99.90;;;;;;4668203;30;19934;-88
2022/05/30 11:53:24;;;;;;;;;;;15.30;99.90;;;;;;4662495;30;19928;-85
2022/05/30 11:56:22;;;;;;;;;;;15.40;99.90;;;;;;4665670;30;20018;-90
2022/05/30 11:59:02;;;;;;;;;;;15.40;99.90;;;;;;4634332;30;19928;-85
2022/05/30 12:01:28;;;;;;;;;;;15.20;99.90;;;;;;4635784;30;19929;-86
2022/05/30 12:04:03;;;;;;;;;;;15.10;99.90;;;;;;4635989;30;19974;-88
2022/05/30 12:06:40;;;;;;;;;;;14.90;99.90;;;;;;4639177;30;19986;-86
2022/05/30 12:09:15;;;;;;;;;;;14.90;99.90;;;;;;4634212;30;19986;-83
2022/05/30 12:11:41;;;;;;;;;;;14.80;99.90;;;;;;4670149;30;20037;-85
2022/05/30 12:14:24;;;;;;;;;;;14.80;99.90;;;;;;4682006;30;19935;-89
2022/05/30 12:16:55;;;;;;;;;;;14.60;99.90;;;;;;4717878;30;20399;-88
2022/05/30 12:24:56;;;;;;;;;;;14.60;99.90;;;;;;4718214;30;19926;-86
2022/05/30 12:27:30;;;;;;;;;;;14.30;99.90;;;;;;4716194;30;19926;-86
2022/05/30 12:29:57;;;;;;;;;;;14.20;99.90;;;;;;4715753;30;19967;-85
2022/05/30 12:32:24;;;;;;;;;;;14.00;99.90;;;;;;4715942;30;20392;-86
2022/05/30 12:35:05;;;;;;;;;;;14.00;99.90;;;;;;4737982;30;20333;-88
2022/05/30 12:37:46;;;;;;;;;;;14.00;99.90;;;;;;4754589;30;20276;-86
2022/05/30 12:40:14;;;;;;;;;;;13.90;99.90;;;;;;4754495;30;20431;-86
2022/05/30 12:42:44;;;;;;;;;;;13.90;99.90;;;;;;4753251;30;20276;-86
2022/05/30 12:45:19;;;;;;;;;;;13.90;99.90;;;;;;4743750;30;19979;-83
2022/05/30 12:47:51;;;;;;;;;;;13.90;99.90;;;;;;4744489;30;20346;-86
2022/05/30 12:50:32;;;;;;;;;;;13.60;99.90;;;;;;4762554;30;19933;-87
2022/05/30 12:52:59;;;;;;;;;;;14.10;99.90;;;;;;4756988;30;19930;-88
2022/05/30 12:55:33;;;;;;;;;;;14.60;99.90;;;;;;4762888;30;19975;-85
2022/05/30 12:57:59;;;;;;;;;;;14.00;99.90;;;;;;4762155;30;19922;-86
2022/05/30 13:00:40;;;;;;;;;;;13.90;99.90;;;;;;4751507;30;19933;-86
2022/05/30 13:03:11;;;;;;;;;;;14.00;99.90;;;;;;4762529;30;20016;-86
2022/05/30 13:05:39;;;;;;;;;;;13.90;99.90;;;;;;4740155;30;19926;-84
2022/05/30 13:08:24;;;;;;;;;;;13.80;99.90;;;;;;4762582;30;19921;-86
2022/05/30 13:10:53;;;;;;;;;;;13.80;99.90;;;;;;4740767;30;19929;-84
2022/05/30 13:13:25;;;;;;;;;;;13.80;99.90;;;;;;4760631;30;20391;-83
2022/05/30 13:15:54;;;;;;;;;;;13.60;99.90;;;;;;4767379;30;20004;-85
2022/05/30 13:18:21;;;;;;;;;;;13.40;99.90;;;;;;4747854;30;19942;-83
2022/05/30 13:20:50;;;;;;;;;;;13.50;99.90;;;;;;4768313;30;19973;-84
2022/05/30 13:23:16;;;;;;;;;;;13.40;99.90;;;;;;4747854;30;19983;-83
2022/05/30 13:25:50;;;;;;;;;;;13.30;99.90;;;;;;4760699;30;19934;-85
2022/05/30 13:28:23;;;;;;;;;;;13.30;99.90;;;;;;4746198;30;19925;-83
2022/05/30 13:30:49;;;;;;;;;;;13.30;99.90;;;;;;4761038;30;19948;-84
2022/05/30 13:33:22;;;;;;;;;;;13.30;99.90;;;;;;4749157;30;19926;-84
2022/05/30 13:35:50;;;;;;;;;;;13.40;99.90;;;;;;4746959;30;20038;-84
2022/05/30 13:38:16;;;;;;;;;;;13.40;99.90;;;;;;4746423;30;19965;-86
2022/05/30 13:40:45;;;;;;;;;;;13.70;99.90;;;;;;4762117;30;20081;-82
2022/05/30 13:43:15;;;;;;;;;;;13.60;99.90;;;;;;4764340;30;19938;-83
2022/05/30 13:45:41;;;;;;;;;;;13.80;99.90;;;;;;4764465;30;19933;-85
2022/05/30 13:48:09;;;;;;;;;;;13.60;99.90;;;;;;4744524;30;19997;-84
2022/05/30 13:50:40;;;;;;;;;;;13.70;99.90;;;;;;4743128;30;20380;-84
2022/05/30 13:53:06;;;;;;;;;;;13.70;99.90;;;;;;4765276;30;20379;-85
2022/05/30 13:55:31;;;;;;;;;;;13.70;99.90;;;;;;4762192;30;20098;-85
2022/05/30 13:58:01;;;;;;;;;;;13.60;99.90;;;;;;4761496;30;19932;-85
2022/05/30 14:00:32;;;;;;;;;;;13.40;99.90;;;;;;4743452;30;19941;-84
2022/05/30 14:02:58;;;;;;;;;;;13.40;99.90;;;;;;4748269;30;19942;-85
2022/05/30 14:05:38;;;;;;;;;;;13.50;99.90;;;;;;4753614;30;19926;-86
2022/05/30 14:08:10;;;;;;;;;;;13.10;99.90;;;;;;4763040;30;19933;-85
2022/05/30 14:10:39;;;;;;;;;;;13.10;99.90;;;;;;4759565;30;19925;-86
2022/05/30 14:13:15;;;;;;;;;;;13.00;99.90;;;;;;4747636;30;20454;-84
2022/05/30 14:15:50;;;;;;;;;;;13.00;99.90;;;;;;4745442;30;20298;-85
2022/05/30 14:18:24;;;;;;;;;;;13.00;99.90;;;;;;4748911;30;19925;-85
2022/05/30 14:20:50;;;;;;;;;;;13.00;99.90;;;;;;4759518;30;20067;-87
2022/05/30 14:23:18;;;;;;;;;;;13.10;99.90;;;;;;4766245;30;19926;-86
2022/05/30 14:25:44;;;;;;;;;;;13.10;99.90;;;;;;4764619;30;20311;-86
2022/05/30 14:28:30;;;;;;;;;;;13.20;99.90;;;;;;4767948;30;19925;-87
2022/05/30 14:30:56;;;;;;;;;;;13.30;99.90;;;;;;4753371;30;19942;-85
2022/05/30 14:33:26;;;;;;;;;;;14.00;99.90;;;;;;4745810;30;19930;-85
2022/05/30 14:35:52;;;;;;;;;;;13.60;99.90;;;;;;4746870;30;19926;-85
2022/05/30 14:38:25;;;;;;;;;;;13.60;99.90;;;;;;4762559;30;20017;-86
2022/05/30 14:40:52;;;;;;;;;;;13.80;99.90;;;;;;4762361;30;20388;-85
2022/05/30 14:43:36;;;;;;;;;;;13.80;99.90;;;;;;4745624;30;20384;-85
2022/05/30 14:46:11;;;;;;;;;;;13.80;99.90;;;;;;4746710;30;20025;-87
2022/05/30 14:48:40;;;;;;;;;;;14.00;99.90;;;;;;4769131;30;20402;-87
2022/05/30 14:51:15;;;;;;;;;;;14.00;99.90;;;;;;4758042;30;19926;-86
2022/05/30 14:53:41;;;;;;;;;;;14.50;99.90;;;;;;4766721;30;19932;-86
2022/05/30 14:56:15;;;;;;;;;;;15.20;99.90;;;;;;4762892;30;19930;-86
2022/05/30 14:58:42;;;;;;;;;;;15.60;99.90;;;;;;4749757;30;20011;-86
2022/05/30 15:01:08;;;;;;;;;;;15.70;99.90;;;;;;4764800;30;19921;-86
2022/05/30 15:06:21;;;;;;;;;;;15.30;99.90;;;;;;4762566;30;19922;-85
2022/05/30 15:08:46;;;;;;;;;;;15.60;99.90;;;;;;4745385;30;20391;-86
2022/05/30 15:11:19;;;;;;;;;;;15.60;99.90;;;;;;4748998;30;19936;-87
2022/05/30 15:13:46;;;;;;;;;;;15.40;99.90;;;;;;4762124;30;19932;-88